createdAt,value
2019-03-26T00:09:13.728Z,99373.00
2019-03-26T00:15:00.459Z,99387.00
2019-03-26T00:20:50.939Z,99391.00
2019-03-26T00:26:40.032Z,99394.00
2019-03-26T00:32:29.197Z,99425.00
2019-03-26T00:35:09.838Z,99393.00
2019-03-26T00:37:50.664Z,99314.00
2019-03-26T00:43:50.401Z,99396.00
2019-03-26T00:46:31.882Z,99398.00
2019-03-26T00:49:13.170Z,99389.00
2019-03-26T00:51:54.827Z,99313.00
2019-03-26T01:13:33.786Z,99342.00
2019-03-26T01:19:36.810Z,99425.00
2019-03-26T01:34:50.342Z,99452.00
2019-03-26T01:37:30.975Z,99444.00
2019-03-26T01:40:11.923Z,99447.00
2019-03-26T01:42:52.506Z,99478.00
2019-03-26T01:45:33.356Z,99395.00
2019-03-26T01:48:15.082Z,99447.00
2019-03-26T01:50:56.617Z,99456.00
2019-03-26T01:53:37.540Z,99486.00
2019-03-26T01:56:18.178Z,99491.00
2019-03-26T01:58:58.868Z,99457.00
2019-03-26T02:01:39.781Z,99480.00
2019-03-26T02:04:39.690Z,99458.00
2019-03-26T02:07:21.343Z,99463.00
2019-03-26T02:10:02.793Z,99484.00
2019-03-26T02:12:43.852Z,99482.00
2019-03-26T02:15:25.440Z,99462.00
2019-03-26T02:21:26.173Z,99467.00
2019-03-26T02:24:07.802Z,99470.00
2019-03-26T02:26:48.478Z,99383.00
2019-03-26T02:29:29.950Z,99511.00
2019-03-26T02:35:29.603Z,99475.00
2019-03-26T02:38:10.497Z,99475.00
2019-03-26T02:40:51.172Z,99476.00
2019-03-26T02:43:31.814Z,99473.00
2019-03-26T02:46:31.270Z,99475.00
2019-03-26T02:52:21.046Z,99468.00
2019-03-26T02:55:21.507Z,99467.00
2019-03-26T02:58:03.129Z,99505.00
2019-03-26T03:00:43.868Z,99456.00
2019-03-26T03:06:44.034Z,99465.00
2019-03-26T03:09:25.625Z,99468.00
2019-03-26T03:18:19.891Z,99485.00
2019-03-26T03:21:00.906Z,99484.00
2019-03-26T03:23:41.742Z,99386.00
2019-03-26T03:26:23.553Z,99477.00
2019-03-26T03:29:04.813Z,99515.00
2019-03-26T03:31:45.717Z,99482.00
2019-03-26T03:34:46.029Z,99520.00
2019-03-26T03:37:27.686Z,99490.00
2019-03-26T03:40:09.125Z,99485.00
2019-03-26T03:42:49.959Z,99531.00
2019-03-26T03:45:31.650Z,99481.00
2019-03-26T03:48:12.996Z,99529.00
2019-03-26T03:53:58.474Z,99496.00
2019-03-26T04:02:51.154Z,99506.00
2019-03-26T04:06:08.857Z,99501.00
2019-03-26T04:11:54.177Z,99490.00
2019-03-26T04:17:53.433Z,99509.00
2019-03-26T04:23:31.298Z,99502.00
2019-03-26T04:29:14.121Z,99503.00
2019-03-26T04:34:55.003Z,99541.00
2019-03-26T04:41:12.659Z,99556.00
2019-03-26T04:44:01.604Z,99531.00
2019-03-26T04:47:25.431Z,99540.00
2019-03-26T04:50:14.055Z,99542.00
2019-03-26T04:56:14.240Z,99580.00
2019-03-26T04:59:02.792Z,99541.00
2019-03-26T05:01:51.457Z,99551.00
2019-03-26T05:07:48.233Z,99555.00
2019-03-26T05:10:36.869Z,99563.00
2019-03-26T05:16:11.787Z,99556.00
2019-03-26T05:18:52.903Z,99553.00
2019-03-26T05:27:45.580Z,99579.00
2019-03-26T05:30:26.332Z,99576.00
2019-03-26T05:33:07.782Z,99572.00
2019-03-26T05:35:51.404Z,99571.00
2019-03-26T05:38:31.092Z,99476.00
2019-03-26T05:41:12.022Z,99591.00
2019-03-26T05:47:01.571Z,99587.00
2019-03-26T05:49:41.195Z,99589.00
2019-03-26T05:52:22.713Z,99632.00
2019-03-26T05:55:08.137Z,99585.00
2019-03-26T05:57:48.826Z,99530.00
2019-03-26T06:00:30.100Z,99628.00
2019-03-26T06:03:11.714Z,99589.00
2019-03-26T06:09:31.416Z,99589.00
2019-03-26T06:12:12.089Z,99591.00
2019-03-26T06:14:52.844Z,99586.00
2019-03-26T06:20:52.937Z,99483.00
2019-03-26T06:23:33.603Z,99594.00
2019-03-26T06:26:14.590Z,99595.00
2019-03-26T06:28:55.246Z,99595.00
2019-03-26T06:31:36.810Z,99605.00
2019-03-26T06:34:17.814Z,99594.00
2019-03-26T06:37:18.377Z,99488.00
2019-03-26T06:43:04.175Z,99607.00
2019-03-26T06:45:45.673Z,99582.00
2019-03-26T06:48:26.301Z,99614.00
2019-03-26T06:51:07.316Z,99624.00
2019-03-26T06:53:48.121Z,99630.00
2019-03-26T06:56:32.615Z,99627.00
2019-03-26T06:59:13.792Z,99634.00
2019-03-26T07:01:54.499Z,99627.00
2019-03-26T07:04:35.812Z,99643.00
2019-03-26T07:07:30.537Z,99647.00
2019-03-26T07:13:05.406Z,99622.00
2019-03-26T07:15:46.749Z,99634.00
2019-03-26T07:18:27.487Z,99639.00
2019-03-26T07:21:09.116Z,99639.00
2019-03-26T07:26:59.335Z,99651.00
2019-03-26T07:29:40.762Z,99573.00
2019-03-26T07:32:22.004Z,99658.00
2019-03-26T07:35:03.022Z,99647.00
2019-03-26T07:41:03.573Z,99657.00
2019-03-26T07:43:45.414Z,99662.00
2019-03-26T07:46:26.636Z,99659.00
2019-03-26T07:49:07.802Z,99699.00
2019-03-26T07:51:48.564Z,99699.00
2019-03-26T07:54:29.210Z,99660.00
2019-03-26T07:57:10.749Z,99698.00
2019-03-26T07:59:51.516Z,99668.00
2019-03-26T08:02:32.973Z,99659.00
2019-03-26T08:05:15.591Z,99627.00
2019-03-26T08:07:58.463Z,99712.00
2019-03-26T08:10:39.375Z,99704.00
2019-03-26T08:13:20.138Z,99663.00
2019-03-26T08:16:01.723Z,99669.00
2019-03-26T08:18:43.218Z,99660.00
2019-03-26T08:24:29.398Z,99657.00
2019-03-26T08:27:10.578Z,99674.00
2019-03-26T08:29:51.957Z,99674.00
2019-03-26T08:32:33.551Z,99719.00
2019-03-26T08:35:14.251Z,99673.00
2019-03-26T08:44:22.606Z,99680.00
2019-03-26T08:47:04.144Z,99736.00
2019-03-26T08:49:45.753Z,99683.00
2019-03-26T08:52:26.935Z,99671.00
2019-03-26T08:55:08.378Z,99723.00
2019-03-26T08:57:49.031Z,99683.00
2019-03-26T09:00:32.027Z,99683.00
2019-03-26T09:03:12.656Z,99614.00
2019-03-26T09:05:54.092Z,99684.00
2019-03-26T09:08:35.510Z,99714.00
2019-03-26T09:11:16.087Z,99690.00
2019-03-26T09:13:56.729Z,99690.00
2019-03-26T09:19:46.029Z,99693.00
2019-03-26T09:22:28.757Z,99735.00
2019-03-26T09:25:09.639Z,99701.00
2019-03-26T09:27:52.599Z,99702.00
2019-03-26T09:30:33.581Z,99714.00
2019-03-26T09:36:22.077Z,99745.00
2019-03-26T09:39:10.934Z,99701.00
2019-03-26T09:41:59.565Z,99824.00
2019-03-26T09:47:46.039Z,99696.00
2019-03-26T09:53:35.282Z,99710.00
2019-03-26T09:59:24.379Z,99588.00
2019-03-26T10:02:05.951Z,99694.00
2019-03-26T10:04:46.724Z,99697.00
2019-03-26T10:07:28.192Z,99687.00
2019-03-26T10:10:09.583Z,99724.00
2019-03-26T10:12:50.264Z,99683.00
2019-03-26T10:18:39.818Z,99687.00
2019-03-26T10:21:21.334Z,99693.00
2019-03-26T10:24:02.710Z,99704.00
2019-03-26T10:26:44.129Z,99705.00
2019-03-26T10:29:30.397Z,99696.00
2019-03-26T10:32:07.449Z,99703.00
2019-03-26T10:34:48.101Z,99703.00
2019-03-26T10:37:29.512Z,99743.00
2019-03-26T10:40:10.670Z,99714.00
2019-03-26T10:42:51.728Z,99735.00
2019-03-26T10:48:40.945Z,99713.00
2019-03-26T10:51:21.613Z,99709.00
2019-03-26T10:57:22.037Z,99687.00
2019-03-26T11:00:03.111Z,99685.00
2019-03-26T11:02:43.844Z,99678.00
2019-03-26T11:05:25.402Z,99692.00
2019-03-26T11:08:07.011Z,99689.00
2019-03-26T11:10:47.771Z,99684.00
2019-03-26T11:13:29.326Z,99688.00
2019-03-26T11:16:10.020Z,99677.00
2019-03-26T11:18:50.870Z,99684.00
2019-03-26T11:27:44.477Z,99687.00
2019-03-26T11:36:35.133Z,99710.00
2019-03-26T11:39:32.561Z,99670.00
2019-03-26T11:45:08.246Z,99687.00
2019-03-26T11:47:56.913Z,99701.00
2019-03-26T11:53:54.662Z,99683.00
2019-03-26T11:56:43.215Z,99658.00
2019-03-26T12:02:26.417Z,99655.00
2019-03-26T12:05:16.619Z,99696.00
2019-03-26T12:08:06.422Z,99664.00
2019-03-26T12:10:55.012Z,99701.00
2019-03-26T12:13:24.792Z,99663.00
2019-03-26T12:15:54.482Z,99662.00
2019-03-26T12:18:24.094Z,99665.00
2019-03-26T12:20:53.963Z,99656.00
2019-03-26T12:23:23.589Z,99645.00
2019-03-26T12:25:53.254Z,99658.00
2019-03-26T12:28:22.927Z,99657.00
2019-03-26T12:30:52.523Z,99632.00
2019-03-26T12:33:22.192Z,99647.00
2019-03-26T12:35:51.854Z,99650.00
2019-03-26T12:38:21.972Z,99635.00
2019-03-26T12:40:52.150Z,99638.00
2019-03-26T12:43:21.911Z,99639.00
2019-03-26T12:45:51.541Z,99644.00
2019-03-26T12:48:21.131Z,99645.00
2019-03-26T12:50:50.795Z,99643.00
2019-03-26T12:53:20.412Z,99643.00
2019-03-26T12:55:50.024Z,99633.00
2019-03-26T12:58:31.213Z,99631.00
2019-03-26T13:00:51.371Z,99638.00
2019-03-26T13:03:21.061Z,99640.00
2019-03-26T13:05:50.682Z,99634.00
2019-03-26T13:08:20.465Z,99631.00
2019-03-26T13:10:53.788Z,99625.00
2019-03-26T13:13:21.650Z,99635.00
2019-03-26T13:15:51.407Z,99634.00
2019-03-26T13:18:20.933Z,99631.00
2019-03-26T13:20:50.780Z,99631.00
2019-03-26T13:23:20.383Z,99626.00
2019-03-26T13:25:50.016Z,99621.00
2019-03-26T13:28:19.578Z,99625.00
2019-03-26T13:30:49.177Z,99622.00
2019-03-26T13:33:18.822Z,99618.00
2019-03-26T13:35:48.821Z,99618.00
2019-03-26T13:38:18.501Z,99627.00
2019-03-26T13:40:48.255Z,99631.00
2019-03-26T13:43:18.143Z,99618.00
2019-03-26T13:45:47.763Z,99615.00
2019-03-26T13:48:17.477Z,99609.00
2019-03-26T13:50:47.103Z,99607.00
2019-03-26T13:53:16.922Z,99615.00
2019-03-26T13:55:46.525Z,99610.00
2019-03-26T13:58:16.064Z,99610.00
2019-03-26T14:00:45.751Z,99622.00
2019-03-26T14:03:15.431Z,99621.00
2019-03-26T14:05:45.052Z,99631.00
2019-03-26T14:08:14.654Z,99626.00
2019-03-26T14:10:44.268Z,99621.00
2019-03-26T14:13:13.783Z,99626.00
2019-03-26T14:15:43.357Z,99628.00
2019-03-26T14:18:13.287Z,99630.00
2019-03-26T14:20:42.963Z,99622.00
2019-03-26T14:23:12.768Z,99629.00
2019-03-26T14:25:42.440Z,99636.00
2019-03-26T14:28:11.978Z,99624.00
2019-03-26T14:30:43.254Z,99620.00
2019-03-26T14:33:13.035Z,99616.00
2019-03-26T14:35:42.645Z,99621.00
2019-03-26T14:38:12.245Z,99621.00
2019-03-26T14:40:54.194Z,99630.00
2019-03-26T14:43:13.276Z,99627.00
2019-03-26T14:45:42.854Z,99619.00
2019-03-26T14:48:12.460Z,99622.00
2019-03-26T14:50:42.439Z,99628.00
2019-03-26T14:53:12.490Z,99633.00
2019-03-26T14:55:45.128Z,99638.00
2019-03-26T14:58:14.756Z,99644.00
2019-03-26T15:00:44.728Z,99631.00
2019-03-26T15:03:14.568Z,99636.00
2019-03-26T15:05:44.082Z,99621.00
2019-03-26T15:08:13.586Z,99617.00
2019-03-26T15:10:43.505Z,99615.00
2019-03-26T15:13:13.163Z,99629.00
2019-03-26T15:15:42.785Z,99612.00
2019-03-26T15:18:12.557Z,99600.00
2019-03-26T15:20:42.155Z,99605.00
2019-03-26T15:23:11.732Z,99604.00
2019-03-26T15:25:41.486Z,99608.00
2019-03-26T15:28:11.854Z,99605.00
2019-03-26T15:30:41.762Z,99604.00
2019-03-26T15:33:11.658Z,99598.00
2019-03-26T15:35:41.649Z,99605.00
2019-03-26T15:38:11.437Z,99602.00
2019-03-26T15:40:41.225Z,99603.00
2019-03-26T15:43:10.961Z,99600.00
2019-03-26T15:45:40.591Z,99596.00
2019-03-26T15:48:10.273Z,99595.00
2019-03-26T15:50:41.361Z,99598.00
2019-03-26T15:53:11.208Z,99602.00
2019-03-26T15:55:42.147Z,99597.00
2019-03-26T15:58:11.959Z,99594.00
2019-03-26T16:00:42.012Z,99599.00
2019-03-26T16:03:11.771Z,99603.00
2019-03-26T16:05:41.296Z,99600.00
2019-03-26T16:08:11.053Z,99603.00
2019-03-26T16:10:41.078Z,99599.00
2019-03-26T16:13:10.764Z,99607.00
2019-03-26T16:15:44.544Z,99600.00
2019-03-26T16:18:11.921Z,99604.00
2019-03-26T16:20:41.598Z,99602.00
2019-03-26T16:23:11.193Z,99617.00
2019-03-26T16:25:40.966Z,99609.00
2019-03-26T16:28:10.680Z,99611.00
2019-03-26T16:30:40.353Z,99611.00
2019-03-26T16:33:09.984Z,99609.00
2019-03-26T16:35:40.417Z,99607.00
2019-03-26T16:38:11.242Z,99612.00
2019-03-26T16:40:40.944Z,99613.00
2019-03-26T16:43:10.665Z,99604.00
2019-03-26T16:45:40.598Z,99605.00
2019-03-26T16:48:10.331Z,99607.00
2019-03-26T16:50:40.031Z,99609.00
2019-03-26T16:53:09.785Z,99613.00
2019-03-26T16:55:39.474Z,99611.00
2019-03-26T16:58:09.210Z,99610.00
2019-03-26T17:00:38.943Z,99612.00
2019-03-26T17:03:08.487Z,99617.00
2019-03-26T17:05:38.234Z,99621.00
2019-03-26T17:08:08.045Z,99621.00
2019-03-26T17:10:37.850Z,99621.00
2019-03-26T17:13:07.845Z,99618.00
2019-03-26T17:15:37.789Z,99619.00
2019-03-26T17:18:07.837Z,99616.00
2019-03-26T17:20:37.515Z,99620.00
2019-03-26T17:23:07.205Z,99624.00
2019-03-26T17:25:36.942Z,99622.00
2019-03-26T17:28:06.758Z,99626.00
2019-03-26T17:30:36.653Z,99629.00
2019-03-26T17:33:06.405Z,99618.00
2019-03-26T17:35:36.065Z,99621.00
2019-03-26T17:38:05.802Z,99618.00
2019-03-26T17:40:35.485Z,99614.00
2019-03-26T17:43:05.866Z,99615.00
2019-03-26T17:45:35.882Z,99617.00
2019-03-26T17:48:05.503Z,99620.00
2019-03-26T17:50:35.088Z,99620.00
2019-03-26T17:53:04.680Z,99621.00
2019-03-26T17:55:34.675Z,99616.00
2019-03-26T17:58:04.186Z,99619.00
2019-03-26T18:00:38.913Z,99644.00
2019-03-26T18:03:08.530Z,99630.00
2019-03-26T18:05:38.211Z,99635.00
2019-03-26T18:08:08.061Z,99646.00
2019-03-26T18:10:37.807Z,99641.00
2019-03-26T18:13:07.664Z,99641.00
2019-03-26T18:15:37.192Z,99641.00
2019-03-26T18:18:07.188Z,99635.00
2019-03-26T18:20:37.031Z,99630.00
2019-03-26T18:23:06.703Z,99643.00
2019-03-26T18:25:36.404Z,99649.00
2019-03-26T18:28:06.220Z,99647.00
2019-03-26T18:30:36.117Z,99643.00
2019-03-26T18:33:05.762Z,99643.00
2019-03-26T18:35:35.740Z,99633.00
2019-03-26T18:38:05.384Z,99645.00
2019-03-26T18:40:34.971Z,99651.00
2019-03-26T18:43:04.702Z,99648.00
2019-03-26T18:45:53.928Z,99649.00
2019-03-26T18:48:23.461Z,99642.00
2019-03-26T18:50:53.238Z,99647.00
2019-03-26T18:53:22.929Z,99649.00
2019-03-26T18:55:52.630Z,99652.00
2019-03-26T18:58:22.308Z,99647.00
2019-03-26T19:00:51.953Z,99650.00
2019-03-26T19:03:21.555Z,99647.00
2019-03-26T19:05:51.463Z,99644.00
2019-03-26T19:08:21.163Z,99646.00
2019-03-26T19:10:50.777Z,99655.00
2019-03-26T19:13:20.379Z,99649.00
2019-03-26T19:15:50.203Z,99641.00
2019-03-26T19:18:19.887Z,99644.00
2019-03-26T19:21:01.354Z,99644.00
2019-03-26T19:23:20.921Z,99641.00
2019-03-26T19:25:50.597Z,99645.00
2019-03-26T19:28:20.541Z,99647.00
2019-03-26T19:30:50.072Z,99645.00
2019-03-26T19:33:19.654Z,99656.00
2019-03-26T19:35:49.634Z,99653.00
2019-03-26T19:38:19.164Z,99655.00
2019-03-26T19:40:48.840Z,99651.00
2019-03-26T19:43:18.539Z,99655.00
2019-03-26T19:45:51.342Z,99656.00
2019-03-26T19:48:21.421Z,99657.00
2019-03-26T19:50:51.261Z,99652.00
2019-03-26T19:53:21.003Z,99655.00
2019-03-26T19:55:50.786Z,99656.00
2019-03-26T19:58:20.544Z,99657.00
2019-03-26T20:00:50.317Z,99660.00
2019-03-26T20:03:20.117Z,99660.00
2019-03-26T20:05:50.971Z,99657.00
2019-03-26T20:08:23.500Z,99661.00
2019-03-26T20:10:53.177Z,99664.00
2019-03-26T20:13:24.621Z,99664.00
2019-03-26T20:15:54.577Z,99662.00
2019-03-26T20:18:25.304Z,99661.00
2019-03-26T20:20:58.884Z,99666.00
2019-03-26T20:23:28.836Z,99668.00
2019-03-26T20:25:58.515Z,99667.00
2019-03-26T20:28:28.274Z,99663.00
2019-03-26T20:30:58.315Z,99676.00
2019-03-26T20:33:28.003Z,99684.00
2019-03-26T20:35:57.598Z,99686.00
2019-03-26T20:38:27.123Z,99696.00
2019-03-26T20:40:56.888Z,99692.00
2019-03-26T20:43:36.809Z,99693.00
2019-03-26T20:45:57.735Z,99704.00
2019-03-26T20:48:27.476Z,99702.00
2019-03-26T20:50:57.425Z,99700.00
2019-03-26T20:53:27.150Z,99699.00
2019-03-26T20:55:56.734Z,99702.00
2019-03-26T20:58:26.456Z,99697.00
2019-03-26T21:00:56.049Z,99701.00
2019-03-26T21:03:25.648Z,99697.00
2019-03-26T21:05:55.199Z,99695.00
2019-03-26T21:08:24.792Z,99707.00
2019-03-26T21:10:54.381Z,99707.00
2019-03-26T21:13:23.912Z,99716.00
2019-03-26T21:15:57.361Z,99721.00
2019-03-26T21:18:24.789Z,99724.00
2019-03-26T21:20:54.475Z,99719.00
2019-03-26T21:23:24.264Z,99724.00
2019-03-26T21:25:53.935Z,99730.00
2019-03-26T21:28:23.514Z,99730.00
2019-03-26T21:30:53.035Z,99732.00
2019-03-26T21:33:22.644Z,99734.00
2019-03-26T21:35:52.510Z,99726.00
2019-03-26T21:38:22.411Z,99735.00
2019-03-26T21:40:52.208Z,99733.00
2019-03-26T21:43:22.040Z,99730.00
2019-03-26T21:45:51.791Z,99728.00
2019-03-26T21:48:21.402Z,99732.00
2019-03-26T21:50:51.098Z,99724.00
2019-03-26T21:53:20.804Z,99734.00
2019-03-26T21:55:50.616Z,99719.00
2019-03-26T21:58:20.152Z,99732.00
2019-03-26T22:00:49.792Z,99731.00
2019-03-26T22:03:19.472Z,99732.00
2019-03-26T22:05:49.174Z,99721.00
2019-03-26T22:08:18.834Z,99728.00
2019-03-26T22:10:48.451Z,99727.00
2019-03-26T22:13:18.119Z,99726.00
2019-03-26T22:15:47.739Z,99720.00
2019-03-26T22:18:17.332Z,99733.00
2019-03-26T22:20:47.113Z,99730.00
2019-03-26T22:23:16.709Z,99725.00
2019-03-26T22:25:46.325Z,99731.00
2019-03-26T22:28:16.048Z,99735.00
2019-03-26T22:30:45.678Z,99719.00
2019-03-26T22:33:15.227Z,99741.00
2019-03-26T22:35:44.891Z,99735.00
2019-03-26T22:38:14.483Z,99748.00
2019-03-26T22:40:44.239Z,99745.00
2019-03-26T22:43:13.990Z,99744.00
2019-03-26T22:45:43.529Z,99752.00
2019-03-26T22:48:13.147Z,99752.00
2019-03-26T22:50:42.828Z,99758.00
2019-03-26T22:53:12.417Z,99751.00
2019-03-26T22:55:42.297Z,99747.00
2019-03-26T22:58:11.954Z,99754.00
2019-03-26T23:00:42.196Z,99742.00
2019-03-26T23:03:11.859Z,99750.00
2019-03-26T23:05:41.582Z,99746.00
2019-03-26T23:08:11.258Z,99752.00
2019-03-26T23:10:40.875Z,99751.00
2019-03-26T23:13:10.561Z,99764.00
2019-03-26T23:15:40.248Z,99747.00
2019-03-26T23:18:09.925Z,99751.00
2019-03-26T23:20:39.634Z,99762.00
2019-03-26T23:23:09.258Z,99756.00
2019-03-26T23:25:38.790Z,99749.00
2019-03-26T23:28:08.475Z,99751.00
2019-03-26T23:30:38.184Z,99751.00
2019-03-26T23:33:07.784Z,99754.00
2019-03-26T23:35:37.459Z,99762.00
2019-03-26T23:38:07.202Z,99767.00
2019-03-26T23:40:37.465Z,99761.00
2019-03-26T23:43:06.993Z,99770.00
2019-03-26T23:45:36.604Z,99770.00
2019-03-26T23:48:06.194Z,99760.00
2019-03-26T23:50:35.800Z,99770.00
2019-03-26T23:53:05.387Z,99758.00
2019-03-26T23:55:35.280Z,99756.00
2019-03-26T23:58:04.884Z,99762.00
